sensor_id;sensor_type;location;lat;lon;timestamp;pressure;altitude;pressure_sealevel;temperature;humidity
62124;BME280;48110;47.532;19.078;2023-02-15T00:00:04;102108.66;;;0.19;100.00
62124;BME280;48110;47.532;19.078;2023-02-15T00:03:11;102105.72;;;0.05;100.00
62124;BME280;48110;47.532;19.078;2023-02-15T00:06:20;102109.66;;;-0.07;100.00
62124;BME280;48110;47.532;19.078;2023-02-15T00:09:28;102101.28;;;0.07;100.00
62124;BME280;48110;47.532;19.078;2023-02-15T00:12:35;102099.75;;;0.02;100.00
62124;BME280;48110;47.532;19.078;2023-02-15T00:15:48;102104.87;;;0.05;100.00
62124;BME280;48110;47.532;19.078;2023-02-15T00:18:55;102108.44;;;0.02;100.00
62124;BME280;48110;47.532;19.078;2023-02-15T00:22:00;102115.09;;;-0.13;100.00
62124;BME280;48110;47.532;19.078;2023-02-15T00:25:08;102113.56;;;-0.18;100.00
62124;BME280;48110;47.532;19.078;2023-02-15T00:28:14;102111.72;;;-0.15;100.00
62124;BME280;48110;47.532;19.078;2023-02-15T00:31:20;102113.81;;;-0.24;100.00
62124;BME280;48110;47.532;19.078;2023-02-15T00:34:27;102115.38;;;-0.20;100.00
62124;BME280;48110;47.532;19.078;2023-02-15T00:37:34;102110.38;;;-0.26;100.00
62124;BME280;48110;47.532;19.078;2023-02-15T00:40:45;102116.25;;;-0.20;100.00
62124;BME280;48110;47.532;19.078;2023-02-15T00:43:57;102108.00;;;-0.32;100.00
62124;BME280;48110;47.532;19.078;2023-02-15T00:47:05;102105.72;;;-0.41;100.00
62124;BME280;48110;47.532;19.078;2023-02-15T00:50:12;102104.94;;;-0.44;100.00
62124;BME280;48110;47.532;19.078;2023-02-15T00:53:21;102103.34;;;-0.48;100.00
62124;BME280;48110;47.532;19.078;2023-02-15T00:56:27;102105.94;;;-0.48;100.00
62124;BME280;48110;47.532;19.078;2023-02-15T00:59:34;102106.03;;;-0.49;100.00
62124;BME280;48110;47.532;19.078;2023-02-15T01:02:43;102108.03;;;-0.57;100.00
62124;BME280;48110;47.532;19.078;2023-02-15T01:05:52;102110.63;;;-0.57;100.00
62124;BME280;48110;47.532;19.078;2023-02-15T01:08:59;102107.87;;;-0.53;100.00
62124;BME280;48110;47.532;19.078;2023-02-15T01:12:12;102110.44;;;-0.51;100.00
62124;BME280;48110;47.532;19.078;2023-02-15T01:15:24;102109.03;;;-0.36;100.00
62124;BME280;48110;47.532;19.078;2023-02-15T01:18:31;102107.81;;;-0.51;100.00
62124;BME280;48110;47.532;19.078;2023-02-15T01:21:39;102100.87;;;-0.75;100.00
62124;BME280;48110;47.532;19.078;2023-02-15T01:24:49;102102.06;;;-0.84;100.00
62124;BME280;48110;47.532;19.078;2023-02-15T01:27:57;102108.16;;;-0.85;100.00
62124;BME280;48110;47.532;19.078;2023-02-15T01:31:08;102109.22;;;-0.91;100.00
62124;BME280;48110;47.532;19.078;2023-02-15T01:34:15;102105.00;;;-0.95;100.00
62124;BME280;48110;47.532;19.078;2023-02-15T01:37:24;102105.19;;;-0.99;100.00
62124;BME280;48110;47.532;19.078;2023-02-15T01:40:32;102099.28;;;-1.04;100.00
62124;BME280;48110;47.532;19.078;2023-02-15T01:43:39;102092.50;;;-1.10;100.00
62124;BME280;48110;47.532;19.078;2023-02-15T01:46:48;102082.94;;;-1.09;100.00
62124;BME280;48110;47.532;19.078;2023-02-15T01:50:01;102084.81;;;-1.13;100.00
62124;BME280;48110;47.532;19.078;2023-02-15T01:56:22;102085.84;;;-0.92;100.00
62124;BME280;48110;47.532;19.078;2023-02-15T01:59:31;102081.84;;;-1.02;100.00
62124;BME280;48110;47.532;19.078;2023-02-15T02:02:41;102074.44;;;-1.14;100.00
62124;BME280;48110;47.532;19.078;2023-02-15T02:05:53;102087.34;;;-1.11;100.00
62124;BME280;48110;47.532;19.078;2023-02-15T02:08:59;102080.50;;;-1.14;100.00
62124;BME280;48110;47.532;19.078;2023-02-15T02:12:08;102086.81;;;-1.21;100.00
62124;BME280;48110;47.532;19.078;2023-02-15T02:15:17;102078.72;;;-1.12;100.00
62124;BME280;48110;47.532;19.078;2023-02-15T02:18:33;102078.88;;;-1.16;100.00
62124;BME280;48110;47.532;19.078;2023-02-15T02:25:08;102074.72;;;-1.22;100.00
62124;BME280;48110;47.532;19.078;2023-02-15T02:28:33;102081.13;;;-1.32;100.00
62124;BME280;48110;47.532;19.078;2023-02-15T02:35:01;102079.66;;;-1.14;100.00
62124;BME280;48110;47.532;19.078;2023-02-15T02:44:42;102077.16;;;-1.17;100.00
62124;BME280;48110;47.532;19.078;2023-02-15T02:47:53;102084.06;;;-1.16;100.00
62124;BME280;48110;47.532;19.078;2023-02-15T02:51:01;102086.03;;;-1.23;100.00
62124;BME280;48110;47.532;19.078;2023-02-15T02:54:09;102089.53;;;-1.24;100.00
62124;BME280;48110;47.532;19.078;2023-02-15T02:57:17;102081.28;;;-1.37;100.00
62124;BME280;48110;47.532;19.078;2023-02-15T03:00:27;102090.91;;;-1.40;100.00
62124;BME280;48110;47.532;19.078;2023-02-15T03:03:49;102086.47;;;-1.37;100.00
62124;BME280;48110;47.532;19.078;2023-02-15T03:07:01;102085.72;;;-1.40;100.00
62124;BME280;48110;47.532;19.078;2023-02-15T03:10:12;102082.69;;;-1.54;100.00
62124;BME280;48110;47.532;19.078;2023-02-15T03:13:22;102085.38;;;-1.56;100.00
62124;BME280;48110;47.532;19.078;2023-02-15T03:16:28;102089.53;;;-1.50;100.00
62124;BME280;48110;47.532;19.078;2023-02-15T03:19:41;102087.69;;;-1.47;100.00
62124;BME280;48110;47.532;19.078;2023-02-15T03:22:57;102085.44;;;-1.59;100.00
62124;BME280;48110;47.532;19.078;2023-02-15T03:26:07;102093.31;;;-1.60;100.00
62124;BME280;48110;47.532;19.078;2023-02-15T03:29:15;102088.47;;;-1.71;100.00
62124;BME280;48110;47.532;19.078;2023-02-15T03:32:29;102085.72;;;-1.66;100.00
62124;BME280;48110;47.532;19.078;2023-02-15T03:35:44;102090.94;;;-1.68;100.00
62124;BME280;48110;47.532;19.078;2023-02-15T03:39:03;102090.94;;;-1.68;100.00
62124;BME280;48110;47.532;19.078;2023-02-15T03:45:27;102091.81;;;-1.67;100.00
62124;BME280;48110;47.532;19.078;2023-02-15T03:48:47;102098.31;;;-1.81;100.00
62124;BME280;48110;47.532;19.078;2023-02-15T03:51:57;102098.88;;;-1.71;100.00
62124;BME280;48110;47.532;19.078;2023-02-15T03:55:07;102099.78;;;-1.73;100.00
62124;BME280;48110;47.532;19.078;2023-02-15T03:58:18;102094.09;;;-1.85;100.00
62124;BME280;48110;47.532;19.078;2023-02-15T04:01:58;102097.66;;;-1.89;100.00
62124;BME280;48110;47.532;19.078;2023-02-15T04:05:08;102090.81;;;-1.91;100.00
62124;BME280;48110;47.532;19.078;2023-02-15T04:08:18;102084.91;;;-1.96;100.00
62124;BME280;48110;47.532;19.078;2023-02-15T04:11:26;102096.84;;;-1.89;100.00
62124;BME280;48110;47.532;19.078;2023-02-15T04:14:41;102081.41;;;-1.95;100.00
62124;BME280;48110;47.532;19.078;2023-02-15T04:18:07;102081.56;;;-2.00;100.00
62124;BME280;48110;47.532;19.078;2023-02-15T04:21:12;102092.16;;;-2.07;100.00
62124;BME280;48110;47.532;19.078;2023-02-15T04:24:37;102097.47;;;-2.10;100.00
62124;BME280;48110;47.532;19.078;2023-02-15T04:28:03;102087.97;;;-2.11;100.00
62124;BME280;48110;47.532;19.078;2023-02-15T04:31:12;102095.00;;;-2.15;100.00
62124;BME280;48110;47.532;19.078;2023-02-15T04:34:22;102091.69;;;-2.20;100.00
62124;BME280;48110;47.532;19.078;2023-02-15T04:37:28;102088.34;;;-2.24;100.00
62124;BME280;48110;47.532;19.078;2023-02-15T04:40:33;102091.81;;;-2.25;100.00
62124;BME280;48110;47.532;19.078;2023-02-15T04:43:41;102088.38;;;-2.25;100.00
62124;BME280;48110;47.532;19.078;2023-02-15T04:46:50;102086.47;;;-2.18;100.00
62124;BME280;48110;47.532;19.078;2023-02-15T04:49:57;102093.16;;;-2.11;100.00
62124;BME280;48110;47.532;19.078;2023-02-15T04:53:09;102090.50;;;-2.08;100.00
62124;BME280;48110;47.532;19.078;2023-02-15T04:56:20;102095.06;;;-1.89;100.00
62124;BME280;48110;47.532;19.078;2023-02-15T04:59:25;102098.16;;;-1.76;100.00
62124;BME280;48110;47.532;19.078;2023-02-15T05:02:33;102094.56;;;-1.72;100.00
62124;BME280;48110;47.532;19.078;2023-02-15T05:05:40;102096.97;;;-1.94;100.00
62124;BME280;48110;47.532;19.078;2023-02-15T05:08:46;102101.22;;;-1.91;100.00
62124;BME280;48110;47.532;19.078;2023-02-15T05:11:53;102101.19;;;-1.90;100.00
62124;BME280;48110;47.532;19.078;2023-02-15T05:15:00;102098.31;;;-1.81;100.00
62124;BME280;48110;47.532;19.078;2023-02-15T05:18:08;102098.88;;;-1.99;100.00
62124;BME280;48110;47.532;19.078;2023-02-15T05:21:16;102107.50;;;-1.98;100.00
62124;BME280;48110;47.532;19.078;2023-02-15T05:24:21;102105.41;;;-2.15;100.00
62124;BME280;48110;47.532;19.078;2023-02-15T05:27:49;102111.00;;;-2.29;100.00
62124;BME280;48110;47.532;19.078;2023-02-15T05:31:17;102116.78;;;-2.19;100.00
62124;BME280;48110;47.532;19.078;2023-02-15T05:34:25;102120.12;;;-2.14;100.00
62124;BME280;48110;47.532;19.078;2023-02-15T05:37:34;102130.00;;;-2.27;100.00
62124;BME280;48110;47.532;19.078;2023-02-15T05:40:39;102131.87;;;-2.32;100.00
62124;BME280;48110;47.532;19.078;2023-02-15T05:43:49;102126.47;;;-2.24;100.00
62124;BME280;48110;47.532;19.078;2023-02-15T05:46:54;102138.22;;;-2.42;100.00
62124;BME280;48110;47.532;19.078;2023-02-15T05:50:00;102138.31;;;-2.45;100.00
62124;BME280;48110;47.532;19.078;2023-02-15T05:53:05;102144.53;;;-2.50;100.00
62124;BME280;48110;47.532;19.078;2023-02-15T05:56:10;102135.22;;;-2.57;100.00
62124;BME280;48110;47.532;19.078;2023-02-15T05:59:15;102137.06;;;-2.62;100.00
62124;BME280;48110;47.532;19.078;2023-02-15T06:02:21;102142.31;;;-2.64;100.00
62124;BME280;48110;47.532;19.078;2023-02-15T06:05:28;102143.66;;;-2.51;100.00
62124;BME280;48110;47.532;19.078;2023-02-15T06:08:38;102130.50;;;-2.43;100.00
62124;BME280;48110;47.532;19.078;2023-02-15T06:11:47;102139.81;;;-2.36;100.00
62124;BME280;48110;47.532;19.078;2023-02-15T06:14:55;102147.31;;;-2.26;100.00
62124;BME280;48110;47.532;19.078;2023-02-15T06:18:00;102147.28;;;-2.24;100.00
62124;BME280;48110;47.532;19.078;2023-02-15T06:21:06;102145.59;;;-2.27;100.00
62124;BME280;48110;47.532;19.078;2023-02-15T06:24:12;102143.84;;;-2.26;100.00
62124;BME280;48110;47.532;19.078;2023-02-15T06:27:20;102158.41;;;-2.19;100.00
62124;BME280;48110;47.532;19.078;2023-02-15T06:30:26;102159.16;;;-1.86;100.00
62124;BME280;48110;47.532;19.078;2023-02-15T06:33:31;102145.69;;;-1.99;100.00
62124;BME280;48110;47.532;19.078;2023-02-15T06:36:43;102154.19;;;-1.94;100.00
62124;BME280;48110;47.532;19.078;2023-02-15T06:39:48;102155.47;;;-1.79;100.00
62124;BME280;48110;47.532;19.078;2023-02-15T06:42:54;102155.78;;;-1.60;100.00
62124;BME280;48110;47.532;19.078;2023-02-15T06:45:59;102168.41;;;-1.48;100.00
62124;BME280;48110;47.532;19.078;2023-02-15T06:49:05;102154.97;;;-1.62;100.00
62124;BME280;48110;47.532;19.078;2023-02-15T06:52:09;102162.31;;;-1.47;100.00
62124;BME280;48110;47.532;19.078;2023-02-15T06:55:17;102167.09;;;-1.35;100.00
62124;BME280;48110;47.532;19.078;2023-02-15T06:58:21;102159.22;;;-1.32;100.00
62124;BME280;48110;47.532;19.078;2023-02-15T07:01:26;102166.94;;;-1.29;100.00
62124;BME280;48110;47.532;19.078;2023-02-15T07:04:29;102164.69;;;-1.13;100.00
62124;BME280;48110;47.532;19.078;2023-02-15T07:07:34;102165.72;;;-1.19;100.00
62124;BME280;48110;47.532;19.078;2023-02-15T07:10:39;102158.00;;;-0.96;100.00
62124;BME280;48110;47.532;19.078;2023-02-15T07:13:43;102163.13;;;-0.93;100.00
62124;BME280;48110;47.532;19.078;2023-02-15T07:16:47;102164.66;;;-0.87;100.00
62124;BME280;48110;47.532;19.078;2023-02-15T07:19:52;102163.59;;;-0.81;100.00
62124;BME280;48110;47.532;19.078;2023-02-15T07:22:56;102169.50;;;-0.76;100.00
62124;BME280;48110;47.532;19.078;2023-02-15T07:26:02;102169.16;;;-0.66;100.00
62124;BME280;48110;47.532;19.078;2023-02-15T07:29:06;102163.62;;;-0.57;100.00
62124;BME280;48110;47.532;19.078;2023-02-15T07:32:10;102160.69;;;-0.48;100.00
62124;BME280;48110;47.532;19.078;2023-02-15T07:35:14;102159.84;;;-0.48;100.00
62124;BME280;48110;47.532;19.078;2023-02-15T07:38:17;102166.34;;;-0.35;100.00
62124;BME280;48110;47.532;19.078;2023-02-15T07:41:22;102162.94;;;-0.14;100.00
62124;BME280;48110;47.532;19.078;2023-02-15T07:44:30;102156.44;;;-0.02;100.00
62124;BME280;48110;47.532;19.078;2023-02-15T07:47:33;102163.78;;;0.10;100.00
62124;BME280;48110;47.532;19.078;2023-02-15T07:50:40;102165.91;;;0.24;100.00
62124;BME280;48110;47.532;19.078;2023-02-15T07:53:44;102159.13;;;0.41;100.00
62124;BME280;48110;47.532;19.078;2023-02-15T07:56:50;102159.97;;;0.42;100.00
62124;BME280;48110;47.532;19.078;2023-02-15T07:59:53;102163.78;;;0.33;100.00
62124;BME280;48110;47.532;19.078;2023-02-15T08:02:57;102160.06;;;0.39;100.00
62124;BME280;48110;47.532;19.078;2023-02-15T08:06:20;102155.69;;;1.25;100.00
62124;BME280;48110;47.532;19.078;2023-02-15T08:09:25;102151.09;;;1.50;100.00
62124;BME280;48110;47.532;19.078;2023-02-15T08:12:29;102148.97;;;1.19;100.00
62124;BME280;48110;47.532;19.078;2023-02-15T08:15:32;102148.97;;;1.19;100.00
62124;BME280;48110;47.532;19.078;2023-02-15T08:18:36;102146.44;;;2.33;100.00
62124;BME280;48110;47.532;19.078;2023-02-15T08:21:41;102144.94;;;3.51;100.00
62124;BME280;48110;47.532;19.078;2023-02-15T08:24:45;102143.06;;;4.34;100.00
62124;BME280;48110;47.532;19.078;2023-02-15T08:27:49;102148.09;;;4.85;100.00
62124;BME280;48110;47.532;19.078;2023-02-15T08:30:55;102138.06;;;5.21;100.00
62124;BME280;48110;47.532;19.078;2023-02-15T08:33:59;102135.41;;;6.22;100.00
62124;BME280;48110;47.532;19.078;2023-02-15T08:37:05;102133.28;;;6.41;100.00
62124;BME280;48110;47.532;19.078;2023-02-15T08:40:10;102134.41;;;7.55;90.77
62124;BME280;48110;47.532;19.078;2023-02-15T08:43:18;102139.97;;;8.01;80.13
62124;BME280;48110;47.532;19.078;2023-02-15T08:46:24;102131.00;;;7.66;80.80
62124;BME280;48110;47.532;19.078;2023-02-15T08:49:29;102125.66;;;5.95;97.00
62124;BME280;48110;47.532;19.078;2023-02-15T08:52:33;102125.19;;;5.89;97.55
62124;BME280;48110;47.532;19.078;2023-02-15T08:55:38;102128.44;;;5.78;96.53
62124;BME280;48110;47.532;19.078;2023-02-15T08:58:43;102131.28;;;4.87;100.00
62124;BME280;48110;47.532;19.078;2023-02-15T09:01:48;102129.16;;;4.94;100.00
62124;BME280;48110;47.532;19.078;2023-02-15T09:04:53;102127.19;;;4.52;100.00
62124;BME280;48110;47.532;19.078;2023-02-15T09:07:58;102121.44;;;4.45;100.00
62124;BME280;48110;47.532;19.078;2023-02-15T09:11:06;102121.28;;;4.48;100.00
62124;BME280;48110;47.532;19.078;2023-02-15T09:14:11;102113.81;;;4.25;100.00
62124;BME280;48110;47.532;19.078;2023-02-15T09:17:21;102115.16;;;4.32;100.00
62124;BME280;48110;47.532;19.078;2023-02-15T09:20:25;102105.75;;;4.12;100.00
62124;BME280;48110;47.532;19.078;2023-02-15T09:23:35;102116.84;;;4.17;100.00
62124;BME280;48110;47.532;19.078;2023-02-15T09:26:41;102114.06;;;4.36;100.00
62124;BME280;48110;47.532;19.078;2023-02-15T09:29:45;102112.72;;;4.45;100.00
62124;BME280;48110;47.532;19.078;2023-02-15T09:32:49;102108.63;;;4.55;100.00
62124;BME280;48110;47.532;19.078;2023-02-15T09:35:53;102108.53;;;4.56;100.00
62124;BME280;48110;47.532;19.078;2023-02-15T09:38:58;102109.56;;;4.54;100.00
62124;BME280;48110;47.532;19.078;2023-02-15T09:45:15;102102.22;;;4.74;100.00
62124;BME280;48110;47.532;19.078;2023-02-15T10:05:06;102081.13;;;5.48;100.00
62124;BME280;48110;47.532;19.078;2023-02-15T10:08:21;102077.09;;;5.57;100.00
62124;BME280;48110;47.532;19.078;2023-02-15T10:21:56;102067.09;;;5.76;100.00
62124;BME280;48110;47.532;19.078;2023-02-15T10:28:19;102060.81;;;5.79;100.00
62124;BME280;48110;47.532;19.078;2023-02-15T10:31:26;102061.13;;;5.88;100.00
62124;BME280;48110;47.532;19.078;2023-02-15T10:34:39;102064.00;;;5.84;100.00
62124;BME280;48110;47.532;19.078;2023-02-15T10:41:36;102064.69;;;5.87;100.00
62124;BME280;48110;47.532;19.078;2023-02-15T10:44:58;102066.56;;;5.99;100.00
62124;BME280;48110;47.532;19.078;2023-02-15T10:51:20;102062.97;;;6.00;100.00
62124;BME280;48110;47.532;19.078;2023-02-15T10:57:34;102051.69;;;6.25;99.06
62124;BME280;48110;47.532;19.078;2023-02-15T11:07:25;102037.22;;;6.45;98.85
62124;BME280;48110;47.532;19.078;2023-02-15T11:10:38;102025.44;;;6.50;95.39
62124;BME280;48110;47.532;19.078;2023-02-15T11:13:46;102026.37;;;6.49;93.24
62124;BME280;48110;47.532;19.078;2023-02-15T11:16:56;102018.16;;;6.54;94.04
62124;BME280;48110;47.532;19.078;2023-02-15T11:20:17;102024.56;;;6.77;92.20
62124;BME280;48110;47.532;19.078;2023-02-15T11:23:24;102015.06;;;6.87;92.40
62124;BME280;48110;47.532;19.078;2023-02-15T11:32:53;102002.72;;;7.13;86.44
62124;BME280;48110;47.532;19.078;2023-02-15T11:36:02;102001.16;;;8.56;79.43
62124;BME280;48110;47.532;19.078;2023-02-15T11:39:10;101998.06;;;11.92;65.38
62124;BME280;48110;47.532;19.078;2023-02-15T11:42:16;101985.19;;;14.91;49.40
62124;BME280;48110;47.532;19.078;2023-02-15T11:48:33;101987.13;;;17.44;42.80
62124;BME280;48110;47.532;19.078;2023-02-15T11:51:36;101978.87;;;18.15;38.25
62124;BME280;48110;47.532;19.078;2023-02-15T11:54:43;101984.22;;;16.18;40.53
62124;BME280;48110;47.532;19.078;2023-02-15T11:57:50;101970.62;;;18.40;37.91
62124;BME280;48110;47.532;19.078;2023-02-15T12:00:58;101984.66;;;19.39;34.95
62124;BME280;48110;47.532;19.078;2023-02-15T12:07:20;101982.53;;;19.49;35.91
62124;BME280;48110;47.532;19.078;2023-02-15T12:10:30;101968.63;;;21.16;32.97
62124;BME280;48110;47.532;19.078;2023-02-15T12:13:37;101969.91;;;19.06;36.17
62124;BME280;48110;47.532;19.078;2023-02-15T12:16:58;101971.56;;;19.51;33.45
62124;BME280;48110;47.532;19.078;2023-02-15T12:20:04;101963.97;;;18.36;36.52
62124;BME280;48110;47.532;19.078;2023-02-15T12:23:13;101951.78;;;21.55;31.29
62124;BME280;48110;47.532;19.078;2023-02-15T12:26:23;101945.84;;;21.25;31.07
62124;BME280;48110;47.532;19.078;2023-02-15T12:29:35;101940.81;;;18.49;35.09
62124;BME280;48110;47.532;19.078;2023-02-15T12:32:47;101941.34;;;16.99;37.65
62124;BME280;48110;47.532;19.078;2023-02-15T12:39:21;101931.81;;;15.91;39.44
62124;BME280;48110;47.532;19.078;2023-02-15T12:42:26;101925.75;;;14.97;41.39
62124;BME280;48110;47.532;19.078;2023-02-15T12:45:31;101927.81;;;16.51;39.61
62124;BME280;48110;47.532;19.078;2023-02-15T12:48:35;101917.56;;;17.73;36.79
62124;BME280;48110;47.532;19.078;2023-02-15T12:51:45;101916.72;;;17.73;36.54
62124;BME280;48110;47.532;19.078;2023-02-15T12:54:49;101908.88;;;16.85;38.51
62124;BME280;48110;47.532;19.078;2023-02-15T12:58:06;101916.94;;;15.96;40.21
62124;BME280;48110;47.532;19.078;2023-02-15T13:01:12;101898.53;;;17.21;37.73
62124;BME280;48110;47.532;19.078;2023-02-15T13:04:21;101900.69;;;16.71;38.20
62124;BME280;48110;47.532;19.078;2023-02-15T13:07:29;101898.59;;;15.09;41.21
62124;BME280;48110;47.532;19.078;2023-02-15T13:10:35;101892.47;;;15.67;40.83
62124;BME280;48110;47.532;19.078;2023-02-15T13:17:00;101881.75;;;14.31;43.46
62124;BME280;48110;47.532;19.078;2023-02-15T13:20:13;101881.09;;;14.81;42.38
62124;BME280;48110;47.532;19.078;2023-02-15T13:23:22;101877.87;;;13.73;44.78
62124;BME280;48110;47.532;19.078;2023-02-15T13:26:29;101873.16;;;13.49;45.26
62124;BME280;48110;47.532;19.078;2023-02-15T13:29:36;101863.44;;;14.19;44.00
62124;BME280;48110;47.532;19.078;2023-02-15T13:32:42;101867.28;;;14.16;44.46
62124;BME280;48110;47.532;19.078;2023-02-15T13:42:27;101858.69;;;12.97;46.63
62124;BME280;48110;47.532;19.078;2023-02-15T13:45:39;101865.72;;;11.55;50.95
62124;BME280;48110;47.532;19.078;2023-02-15T13:52:15;101855.66;;;11.49;50.88
62124;BME280;48110;47.532;19.078;2023-02-15T14:01:46;101853.69;;;11.42;52.56
62124;BME280;48110;47.532;19.078;2023-02-15T14:11:38;101842.03;;;9.91;57.86
62124;BME280;48110;47.532;19.078;2023-02-15T14:30:48;101846.78;;;8.79;64.58
62124;BME280;48110;47.532;19.078;2023-02-15T14:33:54;101844.13;;;8.79;64.69
62124;BME280;48110;47.532;19.078;2023-02-15T14:36:59;101846.66;;;8.69;64.50
62124;BME280;48110;47.532;19.078;2023-02-15T14:47:01;101849.41;;;8.46;65.67
62124;BME280;48110;47.532;19.078;2023-02-15T14:53:33;101832.12;;;8.18;68.37
62124;BME280;48110;47.532;19.078;2023-02-15T14:56:42;101839.69;;;8.11;69.55
62124;BME280;48110;47.532;19.078;2023-02-15T14:59:56;101833.44;;;8.12;70.06
62124;BME280;48110;47.532;19.078;2023-02-15T15:03:11;101821.06;;;8.13;69.28
62124;BME280;48110;47.532;19.078;2023-02-15T15:09:32;101828.16;;;7.77;72.54
62124;BME280;48110;47.532;19.078;2023-02-15T15:12:41;101822.78;;;7.79;73.70
62124;BME280;48110;47.532;19.078;2023-02-15T15:15:45;101827.16;;;7.67;74.45
62124;BME280;48110;47.532;19.078;2023-02-15T15:18:50;101827.00;;;7.58;75.29
62124;BME280;48110;47.532;19.078;2023-02-15T15:21:56;101822.66;;;7.57;76.17
62124;BME280;48110;47.532;19.078;2023-02-15T15:25:03;101815.94;;;7.53;77.20
62124;BME280;48110;47.532;19.078;2023-02-15T15:28:08;101817.91;;;7.38;78.81
62124;BME280;48110;47.532;19.078;2023-02-15T15:31:17;101814.66;;;7.34;79.81
62124;BME280;48110;47.532;19.078;2023-02-15T15:50:46;101813.34;;;6.54;88.00
62124;BME280;48110;47.532;19.078;2023-02-15T15:53:52;101809.13;;;6.65;86.29
62124;BME280;48110;47.532;19.078;2023-02-15T15:57:00;101807.66;;;6.35;89.01
62124;BME280;48110;47.532;19.078;2023-02-15T16:03:30;101811.69;;;6.41;91.79
62124;BME280;48110;47.532;19.078;2023-02-15T16:06:35;101807.78;;;6.21;93.87
62124;BME280;48110;47.532;19.078;2023-02-15T16:09:41;101808.50;;;5.98;96.94
62124;BME280;48110;47.532;19.078;2023-02-15T16:12:48;101810.34;;;5.83;98.88
62124;BME280;48110;47.532;19.078;2023-02-15T16:15:54;101810.28;;;5.97;98.98
62124;BME280;48110;47.532;19.078;2023-02-15T16:19:00;101805.16;;;5.82;100.00
62124;BME280;48110;47.532;19.078;2023-02-15T16:22:11;101810.66;;;5.52;100.00
62124;BME280;48110;47.532;19.078;2023-02-15T16:28:35;101814.38;;;5.22;100.00
62124;BME280;48110;47.532;19.078;2023-02-15T16:31:42;101814.50;;;5.07;100.00
62124;BME280;48110;47.532;19.078;2023-02-15T16:34:56;101819.50;;;5.24;100.00
62124;BME280;48110;47.532;19.078;2023-02-15T16:38:06;101819.28;;;5.00;100.00
62124;BME280;48110;47.532;19.078;2023-02-15T16:41:15;101818.38;;;4.87;100.00
62124;BME280;48110;47.532;19.078;2023-02-15T16:44:24;101819.53;;;4.83;100.00
62124;BME280;48110;47.532;19.078;2023-02-15T16:47:31;101818.00;;;4.93;100.00
62124;BME280;48110;47.532;19.078;2023-02-15T16:50:38;101820.94;;;5.15;100.00
62124;BME280;48110;47.532;19.078;2023-02-15T16:53:46;101818.09;;;4.92;100.00
62124;BME280;48110;47.532;19.078;2023-02-15T16:56:53;101826.81;;;4.92;100.00
62124;BME280;48110;47.532;19.078;2023-02-15T17:00:03;101815.47;;;4.92;100.00
62124;BME280;48110;47.532;19.078;2023-02-15T17:06:22;101823.81;;;4.70;100.00
62124;BME280;48110;47.532;19.078;2023-02-15T17:09:30;101825.63;;;4.69;100.00
62124;BME280;48110;47.532;19.078;2023-02-15T17:19:09;101831.22;;;5.06;100.00
62124;BME280;48110;47.532;19.078;2023-02-15T17:22:22;101837.53;;;5.03;100.00
62124;BME280;48110;47.532;19.078;2023-02-15T17:25:35;101831.59;;;5.00;100.00
62124;BME280;48110;47.532;19.078;2023-02-15T17:28:45;101831.41;;;5.03;100.00
62124;BME280;48110;47.532;19.078;2023-02-15T17:31:54;101826.81;;;4.92;100.00
62124;BME280;48110;47.532;19.078;2023-02-15T17:38:19;101830.75;;;4.85;100.00
62124;BME280;48110;47.532;19.078;2023-02-15T17:41:25;101829.91;;;4.85;100.00
62124;BME280;48110;47.532;19.078;2023-02-15T17:44:31;101834.88;;;4.89;100.00
62124;BME280;48110;47.532;19.078;2023-02-15T17:47:38;101831.84;;;4.54;100.00
62124;BME280;48110;47.532;19.078;2023-02-15T17:50:49;101826.37;;;4.29;100.00
62124;BME280;48110;47.532;19.078;2023-02-15T17:53:56;101834.88;;;4.18;100.00
62124;BME280;48110;47.532;19.078;2023-02-15T17:57:22;101821.81;;;4.03;100.00
62124;BME280;48110;47.532;19.078;2023-02-15T18:00:29;101825.34;;;3.87;100.00
62124;BME280;48110;47.532;19.078;2023-02-15T18:03:54;101824.38;;;3.74;100.00
62124;BME280;48110;47.532;19.078;2023-02-15T18:07:18;101835.41;;;3.65;100.00
62124;BME280;48110;47.532;19.078;2023-02-15T18:10:46;101827.38;;;3.53;100.00
62124;BME280;48110;47.532;19.078;2023-02-15T18:14:09;101825.53;;;3.39;100.00
62124;BME280;48110;47.532;19.078;2023-02-15T18:17:16;101816.50;;;3.29;100.00
62124;BME280;48110;47.532;19.078;2023-02-15T18:20:30;101816.59;;;3.27;100.00
62124;BME280;48110;47.532;19.078;2023-02-15T18:23:41;101824.72;;;3.38;100.00
62124;BME280;48110;47.532;19.078;2023-02-15T18:26:46;101823.53;;;3.28;100.00
62124;BME280;48110;47.532;19.078;2023-02-15T18:29:57;101818.28;;;3.13;100.00
62124;BME280;48110;47.532;19.078;2023-02-15T18:33:02;101816.44;;;3.15;100.00
62124;BME280;48110;47.532;19.078;2023-02-15T18:36:11;101816.91;;;3.05;100.00
62124;BME280;48110;47.532;19.078;2023-02-15T18:39:39;101817.84;;;2.89;100.00
62124;BME280;48110;47.532;19.078;2023-02-15T18:42:51;101815.88;;;2.77;100.00
62124;BME280;48110;47.532;19.078;2023-02-15T18:45:57;101829.50;;;2.68;100.00
62124;BME280;48110;47.532;19.078;2023-02-15T18:49:02;101821.13;;;2.61;100.00
62124;BME280;48110;47.532;19.078;2023-02-15T18:52:19;101825.84;;;2.54;100.00
62124;BME280;48110;47.532;19.078;2023-02-15T18:55:29;101823.78;;;2.44;100.00
62124;BME280;48110;47.532;19.078;2023-02-15T18:58:39;101818.00;;;2.37;100.00
62124;BME280;48110;47.532;19.078;2023-02-15T19:01:51;101816.56;;;2.32;100.00
62124;BME280;48110;47.532;19.078;2023-02-15T19:04:59;101811.81;;;2.23;100.00
62124;BME280;48110;47.532;19.078;2023-02-15T19:08:16;101820.06;;;2.15;100.00